createdAt,value
2023-03-21T00:01:55.287Z,101523.31
2023-03-21T00:04:28.349Z,101518.94
2023-03-21T00:06:58.546Z,101518.06
2023-03-21T00:09:26.234Z,101514.56
2023-03-21T00:11:53.674Z,101515.50
2023-03-21T00:14:21.124Z,101511.09
2023-03-21T00:16:52.204Z,101510.25
2023-03-21T00:19:25.163Z,101508.53
2023-03-21T00:22:07.123Z,101511.16
2023-03-21T00:24:36.050Z,101510.31
2023-03-21T00:27:29.750Z,101502.44
2023-03-21T00:29:51.021Z,101503.31
2023-03-21T00:32:22.201Z,101516.50
2023-03-21T00:35:40.733Z,101507.69
2023-03-21T00:37:37.590Z,101504.22
2023-03-21T00:40:16.302Z,101502.50
2023-03-21T00:42:47.167Z,101495.50
2023-03-21T00:45:15.602Z,101491.13
2023-03-21T00:47:43.778Z,101488.47
2023-03-21T00:50:12.789Z,101488.50
2023-03-21T00:52:41.325Z,101490.25
2023-03-21T00:55:17.035Z,101486.78
2023-03-21T00:57:47.460Z,101484.16
2023-03-21T01:00:20.450Z,101481.53
2023-03-21T01:03:04.275Z,101473.66
2023-03-21T01:06:12.615Z,101464.03
2023-03-21T01:08:56.519Z,101462.28
2023-03-21T01:11:26.976Z,101458.78
2023-03-21T01:14:04.189Z,101457.03
2023-03-21T01:16:38.436Z,101459.66
2023-03-21T01:19:14.868Z,101464.91
2023-03-21T01:21:49.832Z,101456.97
2023-03-21T01:24:17.162Z,101460.53
2023-03-21T01:26:44.412Z,101457.03
2023-03-21T01:29:12.007Z,101457.03
2023-03-21T01:31:39.579Z,101458.81
2023-03-21T01:34:08.036Z,101457.91
2023-03-21T01:36:35.422Z,101461.44
2023-03-21T01:39:06.803Z,101464.06
2023-03-21T01:41:43.284Z,101455.28
2023-03-21T01:44:26.326Z,101455.28
2023-03-21T01:47:09.628Z,101454.44
2023-03-21T01:49:47.910Z,101450.06
2023-03-21T01:52:39.542Z,101447.44
2023-03-21T01:55:18.627Z,101447.41
2023-03-21T01:58:07.127Z,101447.41
2023-03-21T02:00:55.330Z,101443.03
2023-03-21T02:03:50.692Z,101446.53
2023-03-21T02:06:51.667Z,101444.78
2023-03-21T02:09:38.159Z,101438.59
2023-03-21T02:12:12.995Z,101429.00
2023-03-21T02:14:40.708Z,101422.91
2023-03-21T02:17:59.581Z,101423.75
2023-03-21T02:21:07.973Z,101429.91
2023-03-21T02:23:53.690Z,101422.91
2023-03-21T02:26:52.456Z,101419.38
2023-03-21T02:29:42.547Z,101416.78
2023-03-21T02:32:57.984Z,101408.88
2023-03-21T02:36:14.057Z,101402.75
2023-03-21T02:38:59.955Z,101408.03
2023-03-21T02:41:54.851Z,101402.75
2023-03-21T02:44:35.111Z,101401.88
2023-03-21T02:47:08.172Z,101394.00
2023-03-21T02:49:47.322Z,101390.50
2023-03-21T02:52:35.478Z,101391.44
2023-03-21T02:55:07.936Z,101389.69
2023-03-21T02:57:50.322Z,101389.69
2023-03-21T03:00:21.676Z,101394.09
2023-03-21T03:02:54.618Z,101399.34
2023-03-21T03:05:30.306Z,101389.72
2023-03-21T03:08:07.044Z,101389.72
2023-03-21T03:10:52.992Z,101392.38
2023-03-21T03:13:38.495Z,101393.22
2023-03-21T03:16:26.134Z,101400.25
2023-03-21T03:18:55.980Z,101391.50
2023-03-21T03:21:37.951Z,101395.00
2023-03-21T03:24:09.948Z,101396.75
2023-03-21T03:26:47.608Z,101390.66
2023-03-21T03:29:18.922Z,101390.66
2023-03-21T03:31:51.150Z,101393.31
2023-03-21T03:34:27.710Z,101393.34
2023-03-21T03:36:57.723Z,101388.94
2023-03-21T03:39:32.106Z,101381.91
2023-03-21T03:42:27.171Z,101390.72
2023-03-21T03:45:02.029Z,101379.31
2023-03-21T03:47:56.085Z,101377.59
2023-03-21T03:50:30.988Z,101367.06
2023-03-21T03:53:18.171Z,101373.22
2023-03-21T03:55:49.319Z,101376.72
2023-03-21T03:58:23.799Z,101371.47
2023-03-21T04:00:55.325Z,101372.38
2023-03-21T04:03:23.073Z,101366.25
2023-03-21T04:05:50.875Z,101367.13
2023-03-21T04:08:18.844Z,101366.25
2023-03-21T04:10:52.034Z,101368.91
2023-03-21T04:13:19.834Z,101361.00
2023-03-21T04:16:09.757Z,101354.00
2023-03-21T04:18:39.309Z,101363.63
2023-03-21T04:21:13.245Z,101365.41
2023-03-21T04:23:42.001Z,101361.88
2023-03-21T04:26:09.397Z,101361.91
2023-03-21T04:28:41.760Z,101359.28
2023-03-21T04:31:41.505Z,101354.91
2023-03-21T04:34:12.491Z,101356.69
2023-03-21T04:36:50.947Z,101353.19
2023-03-21T04:39:18.411Z,101351.44
2023-03-21T04:41:49.715Z,101347.06
2023-03-21T04:44:18.301Z,101347.06
2023-03-21T04:46:50.379Z,101345.31
2023-03-21T04:49:18.960Z,101346.22
2023-03-21T04:51:46.377Z,101343.59
2023-03-21T04:54:19.318Z,101333.94
2023-03-21T04:56:46.841Z,101336.56
2023-03-21T04:59:17.864Z,101332.22
2023-03-21T05:01:45.973Z,101335.72
2023-03-21T05:04:14.710Z,101329.59
2023-03-21T05:06:45.352Z,101329.59
2023-03-21T05:09:13.570Z,101332.22
2023-03-21T05:11:41.303Z,101336.56
2023-03-21T05:14:14.623Z,101323.44
2023-03-21T05:16:45.110Z,101326.97
2023-03-21T05:19:14.034Z,101327.84
2023-03-21T05:21:43.514Z,101328.72
2023-03-21T05:24:20.577Z,101326.09
2023-03-21T05:26:52.493Z,101319.97
2023-03-21T05:29:23.488Z,101313.84
2023-03-21T05:32:00.727Z,101314.72
2023-03-21T05:34:28.787Z,101315.59
2023-03-21T05:36:56.327Z,101312.13
2023-03-21T05:39:26.644Z,101310.34
2023-03-21T05:42:03.089Z,101312.97
2023-03-21T05:44:31.697Z,101311.22
2023-03-21T05:47:03.414Z,101313.00
2023-03-21T05:49:38.248Z,101313.88
2023-03-21T05:52:06.510Z,101315.63
2023-03-21T05:54:34.075Z,101312.13
2023-03-21T05:57:03.209Z,101310.44
2023-03-21T05:59:49.808Z,101306.94
2023-03-21T06:02:18.754Z,101306.09
2023-03-21T06:04:47.340Z,101306.09
2023-03-21T06:07:14.546Z,101307.84
2023-03-21T06:09:42.677Z,101307.88
2023-03-21T06:12:10.069Z,101308.75
2023-03-21T06:15:06.168Z,101305.25
2023-03-21T06:17:44.618Z,101314.09
2023-03-21T06:20:14.397Z,101310.59
2023-03-21T06:22:47.972Z,101307.09
2023-03-21T06:25:15.536Z,101309.72
2023-03-21T06:27:43.928Z,101310.63
2023-03-21T06:30:11.822Z,101311.53
2023-03-21T06:32:46.861Z,101310.63
2023-03-21T06:35:18.770Z,101312.41
2023-03-21T06:37:49.305Z,101303.69
2023-03-21T06:40:17.695Z,101304.56
2023-03-21T06:42:45.939Z,101300.19
2023-03-21T06:45:14.199Z,101308.09
2023-03-21T06:47:42.927Z,101303.69
2023-03-21T06:50:19.579Z,101296.72
2023-03-21T06:52:47.068Z,101309.00
2023-03-21T06:55:15.560Z,101309.88
2023-03-21T06:57:43.135Z,101308.16
2023-03-21T07:00:11.603Z,101306.41
2023-03-21T07:02:45.000Z,101304.66
2023-03-21T07:05:17.221Z,101315.25
2023-03-21T07:07:45.205Z,101313.50
2023-03-21T07:10:12.846Z,101306.50
2023-03-21T07:12:59.104Z,101309.16
2023-03-21T07:15:53.661Z,101313.56
2023-03-21T07:18:21.373Z,101310.94
2023-03-21T07:20:52.391Z,101323.19
2023-03-21T07:23:22.867Z,101314.47
2023-03-21T07:25:51.312Z,101317.09
2023-03-21T07:28:19.236Z,101314.47
2023-03-21T07:30:53.618Z,101311.88
2023-03-21T07:33:21.492Z,101315.44
2023-03-21T07:35:51.262Z,101311.06
2023-03-21T07:38:19.843Z,101321.66
2023-03-21T07:40:48.509Z,101319.94
2023-03-21T07:45:56.931Z,101312.97
2023-03-21T07:48:24.528Z,101307.78
2023-03-21T07:50:52.164Z,101313.91
2023-03-21T07:53:19.649Z,101308.69
2023-03-21T07:55:53.138Z,101317.47
2023-03-21T07:58:20.941Z,101311.38
2023-03-21T08:00:48.936Z,101307.03
2023-03-21T08:03:16.482Z,101307.94
2023-03-21T08:05:44.938Z,101314.97
2023-03-21T08:08:12.635Z,101303.63
2023-03-21T08:10:41.981Z,101309.75
2023-03-21T08:13:09.230Z,101306.25
2023-03-21T08:15:38.048Z,101301.06
2023-03-21T08:18:05.716Z,101301.09
2023-03-21T08:20:33.006Z,101302.03
2023-03-21T08:23:00.366Z,101302.91
2023-03-21T08:25:28.369Z,101300.28
2023-03-21T08:27:55.823Z,101296.72
2023-03-21T08:30:26.007Z,101297.63
2023-03-21T08:33:00.680Z,101304.66
2023-03-21T08:35:30.792Z,101288.00
2023-03-21T08:37:58.068Z,101298.59
2023-03-21T08:40:26.175Z,101288.09
2023-03-21T08:42:53.544Z,101292.47
2023-03-21T08:45:21.170Z,101286.31
2023-03-21T08:47:48.504Z,101287.19
2023-03-21T08:50:19.026Z,101281.97
2023-03-21T08:52:46.617Z,101284.59
2023-03-21T08:55:15.758Z,101286.34
2023-03-21T08:57:44.188Z,101299.50
2023-03-21T09:00:17.272Z,101287.25
2023-03-21T09:02:46.971Z,101285.56
2023-03-21T09:05:16.782Z,101281.19
2023-03-21T09:07:45.073Z,101281.19
2023-03-21T09:10:20.613Z,101285.66
2023-03-21T09:12:50.842Z,101281.25
2023-03-21T09:15:20.485Z,101281.28
2023-03-21T09:17:50.357Z,101283.03
2023-03-21T09:20:21.258Z,101276.03
2023-03-21T09:22:50.310Z,101276.03
2023-03-21T09:25:19.442Z,101275.16
2023-03-21T09:27:48.012Z,101270.78
2023-03-21T09:30:17.106Z,101269.06
2023-03-21T09:32:49.999Z,101270.75
2023-03-21T09:35:18.958Z,101274.31
2023-03-21T09:37:48.209Z,101283.06
2023-03-21T09:40:52.693Z,101268.16
2023-03-21T09:43:59.105Z,101270.81
2023-03-21T09:46:45.379Z,101275.22
2023-03-21T09:49:25.738Z,101275.22
2023-03-21T09:51:56.606Z,101268.16
2023-03-21T09:54:33.344Z,101257.66
2023-03-21T09:57:07.928Z,101259.41
2023-03-21T09:59:40.364Z,101261.16
2023-03-21T10:02:19.745Z,101261.16
2023-03-21T10:04:47.101Z,101261.16
2023-03-21T10:07:18.168Z,101260.25
2023-03-21T10:09:47.777Z,101254.13
2023-03-21T10:12:21.905Z,101257.66
2023-03-21T10:14:54.154Z,101242.78
2023-03-21T10:17:34.035Z,101248.13
2023-03-21T10:20:12.312Z,101242.03
2023-03-21T10:22:39.740Z,101246.44
2023-03-21T10:25:11.362Z,101240.34
2023-03-21T10:27:39.014Z,101249.13
2023-03-21T10:30:08.411Z,101239.44
2023-03-21T10:32:35.977Z,101239.44
2023-03-21T10:35:05.147Z,101241.19
2023-03-21T10:37:32.883Z,101235.00
2023-03-21T10:40:00.400Z,101240.25
2023-03-21T10:42:31.446Z,101246.38
2023-03-21T10:44:59.016Z,101239.34
2023-03-21T10:47:36.345Z,101229.66
2023-03-21T10:50:12.491Z,101239.28
2023-03-21T10:53:00.395Z,101234.00
2023-03-21T10:55:34.394Z,101237.47
2023-03-21T10:58:29.671Z,101227.81
2023-03-21T11:01:03.207Z,101227.81
2023-03-21T11:03:43.625Z,101219.09
2023-03-21T11:06:27.265Z,101222.59
2023-03-21T11:08:58.895Z,101224.38
2023-03-21T11:11:27.642Z,101218.16
2023-03-21T11:14:04.257Z,101209.44
2023-03-21T11:16:43.773Z,101211.22
2023-03-21T11:19:18.160Z,101219.22
2023-03-21T11:21:45.844Z,101203.50
2023-03-21T11:24:17.564Z,101206.16
2023-03-21T11:26:48.225Z,101200.06
2023-03-21T11:29:26.214Z,101198.38
2023-03-21T11:31:53.708Z,101198.38
2023-03-21T11:34:29.758Z,101192.34
2023-03-21T11:37:04.248Z,101198.56
2023-03-21T11:39:37.388Z,101186.31
2023-03-21T11:42:04.807Z,101198.69
2023-03-21T11:44:35.431Z,101198.72
2023-03-21T11:47:04.059Z,101186.44
2023-03-21T11:49:31.561Z,101190.00
2023-03-21T11:52:21.027Z,101193.53
2023-03-21T11:55:04.068Z,101179.53
2023-03-21T11:57:44.669Z,101185.72
2023-03-21T12:00:22.833Z,101176.09
2023-03-21T12:03:07.965Z,101176.22
2023-03-21T12:05:39.223Z,101172.72
2023-03-21T12:08:12.832Z,101159.63
2023-03-21T12:10:53.745Z,101160.66
2023-03-21T12:13:41.481Z,101166.91
2023-03-21T12:16:43.777Z,101166.97
2023-03-21T12:19:32.367Z,101151.19
2023-03-21T12:22:27.605Z,101145.09
2023-03-21T12:24:57.037Z,101159.19
2023-03-21T12:27:42.352Z,101150.44
2023-03-21T12:30:31.312Z,101147.81
2023-03-21T12:33:13.648Z,101153.97
2023-03-21T12:35:48.469Z,101156.63
2023-03-21T12:38:23.753Z,101143.44
2023-03-21T12:41:12.779Z,101146.97
2023-03-21T12:43:49.104Z,101140.81
2023-03-21T12:46:30.634Z,101132.06
2023-03-21T12:49:18.238Z,101136.47
2023-03-21T12:51:50.566Z,101141.75
2023-03-21T12:54:30.553Z,101125.94
2023-03-21T12:57:04.648Z,101129.44
2023-03-21T12:59:37.770Z,101130.25
2023-03-21T13:02:30.722Z,101124.94
2023-03-21T13:05:20.422Z,101121.38
2023-03-21T13:07:52.926Z,101113.47
2023-03-21T13:10:21.642Z,101109.06
2023-03-21T13:12:57.862Z,101112.59
2023-03-21T13:15:28.325Z,101122.25
2023-03-21T13:18:16.288Z,101115.22
2023-03-21T13:20:53.025Z,101098.53
2023-03-21T13:23:25.451Z,101093.22
2023-03-21T13:25:55.794Z,101091.50
2023-03-21T13:28:30.369Z,101090.66
2023-03-21T13:31:50.956Z,101088.88
2023-03-21T13:34:22.615Z,101086.25
2023-03-21T13:36:51.175Z,101077.50
2023-03-21T13:39:27.933Z,101077.50
2023-03-21T13:42:03.703Z,101066.97
2023-03-21T13:44:50.531Z,101070.47
2023-03-21T13:47:55.739Z,101061.75
2023-03-21T13:50:24.801Z,101060.03
2023-03-21T13:53:23.660Z,101061.81
2023-03-21T13:56:22.131Z,101060.94
2023-03-21T13:58:50.527Z,101067.13
2023-03-21T14:01:34.821Z,101061.84
2023-03-21T14:04:05.206Z,101058.34
2023-03-21T14:06:47.596Z,101044.28
2023-03-21T14:09:31.784Z,101044.28
2023-03-21T14:12:07.334Z,101036.34
2023-03-21T14:14:41.968Z,101027.56
2023-03-21T14:17:23.101Z,101028.44
2023-03-21T14:20:03.595Z,101024.97
2023-03-21T14:22:31.041Z,101024.06
2023-03-21T14:25:03.117Z,101012.66
2023-03-21T14:27:37.783Z,101010.91
2023-03-21T14:30:06.111Z,101020.56
2023-03-21T14:32:35.460Z,101003.03
2023-03-21T14:35:04.463Z,101006.53
2023-03-21T14:37:38.917Z,101003.91
2023-03-21T14:40:26.696Z,100996.00
2023-03-21T14:42:55.040Z,100996.03
2023-03-21T14:45:28.288Z,100996.91
2023-03-21T14:48:08.913Z,100997.81
2023-03-21T14:50:57.517Z,100992.53
2023-03-21T14:53:36.190Z,100984.66
2023-03-21T14:56:20.168Z,100986.38
2023-03-21T14:58:48.086Z,100979.34
2023-03-21T15:01:21.920Z,100976.72
2023-03-21T15:03:52.170Z,100976.72
2023-03-21T15:06:19.884Z,100984.66
2023-03-21T15:09:03.092Z,100963.53
2023-03-21T15:11:33.022Z,100971.47
2023-03-21T15:14:05.088Z,100974.09
2023-03-21T15:16:32.598Z,100967.91
2023-03-21T15:19:02.221Z,100962.63
2023-03-21T15:21:38.139Z,100969.69
2023-03-21T15:24:14.116Z,100963.53
2023-03-21T15:26:45.919Z,100964.41
2023-03-21T15:29:15.045Z,100962.66
2023-03-21T15:31:43.353Z,100965.28
2023-03-21T15:34:27.575Z,100961.75
2023-03-21T15:37:07.674Z,100957.34
2023-03-21T15:39:36.678Z,100960.88
2023-03-21T15:42:21.232Z,100956.47
2023-03-21T15:44:52.154Z,100965.28
2023-03-21T15:47:43.670Z,100958.22
2023-03-21T15:50:29.711Z,100952.97
2023-03-21T15:53:00.770Z,100954.72
2023-03-21T15:55:42.640Z,100961.75
2023-03-21T15:58:21.293Z,100963.53
2023-03-21T16:00:55.518Z,100957.34
2023-03-21T16:03:26.497Z,100958.22
2023-03-21T16:06:10.230Z,100959.97
2023-03-21T16:09:03.695Z,100961.72
2023-03-21T16:11:49.167Z,100957.34
2023-03-21T16:14:21.069Z,100960.84
2023-03-21T16:16:48.855Z,100946.78
2023-03-21T16:19:17.591Z,100952.94
2023-03-21T16:21:44.872Z,100947.63
2023-03-21T16:24:13.693Z,100944.13
2023-03-21T16:26:48.077Z,100950.28
2023-03-21T16:29:16.780Z,100947.63
2023-03-21T16:31:44.472Z,100957.31
2023-03-21T16:34:12.639Z,100957.28
2023-03-21T16:36:41.494Z,100959.91
2023-03-21T16:39:24.447Z,100949.38
2023-03-21T16:41:52.290Z,100956.38
2023-03-21T16:44:20.179Z,100954.63
2023-03-21T16:46:47.957Z,100959.88
2023-03-21T16:49:25.829Z,100956.34
2023-03-21T16:51:56.117Z,100950.19
2023-03-21T16:54:24.039Z,100951.94
2023-03-21T16:56:54.335Z,100962.50
2023-03-21T16:59:22.246Z,100960.72
2023-03-21T17:01:49.950Z,100969.50
2023-03-21T17:04:18.632Z,100970.41
2023-03-21T17:06:49.548Z,100966.88
2023-03-21T17:09:21.156Z,100977.41
2023-03-21T17:11:49.576Z,100972.09
2023-03-21T17:14:18.642Z,100981.75
2023-03-21T17:16:46.386Z,100979.94
2023-03-21T17:19:21.992Z,100991.31
2023-03-21T17:21:49.322Z,100985.13
2023-03-21T17:24:17.556Z,100989.47
2023-03-21T17:26:44.969Z,100985.94
2023-03-21T17:29:15.695Z,100984.06
2023-03-21T17:31:47.289Z,100982.28
2023-03-21T17:34:15.682Z,100989.25
2023-03-21T17:36:46.723Z,100983.06
2023-03-21T17:39:25.998Z,100997.97
2023-03-21T17:41:54.108Z,100987.38
2023-03-21T17:44:21.864Z,100987.38
2023-03-21T17:46:51.567Z,100982.97
2023-03-21T17:49:21.257Z,100982.94
2023-03-21T17:51:48.849Z,100984.69
2023-03-21T17:54:17.574Z,100990.84
2023-03-21T17:56:44.866Z,100990.78
2023-03-21T17:59:13.963Z,100989.91
2023-03-21T18:01:44.953Z,100983.75
2023-03-21T18:04:12.270Z,100986.41
2023-03-21T18:06:40.022Z,100991.63
2023-03-21T18:09:12.148Z,100998.66
2023-03-21T18:11:40.814Z,101003.00
2023-03-21T18:14:17.566Z,101004.75
2023-03-21T18:16:47.839Z,100996.88
2023-03-21T18:19:17.924Z,101009.13
2023-03-21T18:21:46.116Z,101009.13
2023-03-21T18:24:14.408Z,101006.50
2023-03-21T18:26:43.344Z,101000.31
2023-03-21T18:32:07.805Z,100988.94
2023-03-21T18:34:38.804Z,100990.66
2023-03-21T18:37:08.186Z,100992.41
2023-03-21T18:39:37.291Z,100977.50
2023-03-21T18:42:06.140Z,100974.84
2023-03-21T18:44:37.590Z,100977.47
2023-03-21T18:47:08.554Z,100979.22
2023-03-21T18:50:10.436Z,100970.41
2023-03-21T18:52:23.849Z,100976.53
2023-03-21T18:54:51.257Z,100968.63
2023-03-21T18:57:37.431Z,100976.53
2023-03-21T19:00:13.838Z,100973.03
2023-03-21T19:02:48.090Z,100966.00
2023-03-21T19:05:19.057Z,100959.88
2023-03-21T19:07:48.068Z,100961.59
2023-03-21T19:10:19.928Z,100965.13
2023-03-21T19:12:49.625Z,100959.00
2023-03-21T19:15:19.861Z,100956.38
2023-03-21T19:20:36.505Z,100956.34
2023-03-21T19:23:04.258Z,100944.91
2023-03-21T19:25:32.562Z,100947.53
2023-03-21T19:27:59.966Z,100951.03
2023-03-21T19:30:27.979Z,100945.75
2023-03-21T19:32:55.979Z,100943.13
2023-03-21T19:35:23.293Z,100936.13
2023-03-21T19:37:50.833Z,100936.13
2023-03-21T19:40:19.886Z,100935.28
2023-03-21T19:42:47.503Z,100936.16
2023-03-21T19:45:14.824Z,100937.03
2023-03-21T19:47:42.221Z,100930.03
2023-03-21T19:52:57.602Z,100938.81
2023-03-21T19:55:25.866Z,100927.41
2023-03-21T19:57:53.808Z,100921.25
2023-03-21T20:00:21.830Z,100922.16
2023-03-21T20:02:49.307Z,100922.13
2023-03-21T20:05:20.733Z,100931.75
2023-03-21T20:07:48.275Z,100929.94
2023-03-21T20:10:15.772Z,100921.16
2023-03-21T20:12:43.098Z,100909.75
2023-03-21T20:15:17.624Z,100919.38
2023-03-21T20:17:47.639Z,100909.72
2023-03-21T20:20:17.990Z,100916.72
2023-03-21T20:25:40.751Z,100918.44
2023-03-21T20:28:20.390Z,100914.03
2023-03-21T20:30:58.486Z,100921.03
2023-03-21T20:33:27.154Z,100917.50
2023-03-21T20:38:51.462Z,100913.09
2023-03-21T20:41:19.036Z,100912.19
2023-03-21T20:46:36.414Z,100917.41
2023-03-21T20:49:06.758Z,100907.69
2023-03-21T20:54:21.504Z,100899.72
2023-03-21T20:56:48.984Z,100903.19
2023-03-21T20:59:24.949Z,100899.66
2023-03-21T21:01:57.308Z,100902.28
2023-03-21T21:04:48.228Z,100901.41
2023-03-21T21:07:21.151Z,100890.00
2023-03-21T21:09:49.454Z,100894.38
2023-03-21T21:12:19.652Z,100892.59
2023-03-21T21:14:48.322Z,100889.97
2023-03-21T21:17:42.881Z,100886.44
2023-03-21T21:20:17.078Z,100884.66
2023-03-21T21:22:58.562Z,100889.88
2023-03-21T21:25:27.427Z,100881.97
2023-03-21T21:27:55.435Z,100881.94
2023-03-21T21:30:22.875Z,100874.91
2023-03-21T21:32:50.518Z,100870.50
2023-03-21T21:35:19.614Z,100873.09
2023-03-21T21:37:47.048Z,100874.84
2023-03-21T21:40:17.048Z,100873.94
2023-03-21T21:42:44.916Z,100872.16
2023-03-21T21:45:13.489Z,100873.00
2023-03-21T21:47:40.993Z,100869.47
2023-03-21T21:50:09.146Z,100860.69
2023-03-21T21:52:37.542Z,100874.69
2023-03-21T21:55:06.560Z,100865.03
2023-03-21T21:57:34.658Z,100865.00
2023-03-21T22:00:06.538Z,100857.09
2023-03-21T22:02:41.511Z,100860.56
2023-03-21T22:05:09.549Z,100860.53
2023-03-21T22:07:38.204Z,100860.44
2023-03-21T22:10:06.871Z,100850.78
2023-03-21T22:12:34.595Z,100844.66
2023-03-21T22:15:03.986Z,100842.88
2023-03-21T22:17:31.342Z,100849.84
2023-03-21T22:20:05.624Z,100844.59
2023-03-21T22:22:34.820Z,100839.34
2023-03-21T22:25:07.416Z,100838.47
2023-03-21T22:27:35.024Z,100848.13
2023-03-21T22:30:07.464Z,100836.75
2023-03-21T22:32:36.699Z,100836.72
2023-03-21T22:35:05.893Z,100835.84
2023-03-21T22:37:34.860Z,100834.09
2023-03-21T22:40:05.524Z,100830.59
2023-03-21T22:42:33.143Z,100824.47
2023-03-21T22:45:02.842Z,100827.97
2023-03-21T22:47:30.439Z,100827.97
2023-03-21T22:49:57.974Z,100824.47
2023-03-21T22:52:25.434Z,100821.00
2023-03-21T22:54:52.946Z,100815.78
2023-03-21T22:57:20.721Z,100819.31
2023-03-21T22:59:48.587Z,100828.09
2023-03-21T23:02:16.189Z,100817.66
2023-03-21T23:04:43.596Z,100817.66
2023-03-21T23:07:10.888Z,100813.31
2023-03-21T23:09:38.486Z,100815.97
2023-03-21T23:12:06.042Z,100817.75
2023-03-21T23:14:33.396Z,100814.25
2023-03-21T23:17:03.168Z,100808.16
2023-03-21T23:19:31.328Z,100810.75
2023-03-21T23:21:59.013Z,100802.94
2023-03-21T23:24:26.642Z,100805.56
2023-03-21T23:26:53.988Z,100793.31
2023-03-21T23:29:21.401Z,100801.22
2023-03-21T23:31:48.730Z,100795.09
2023-03-21T23:34:16.198Z,100795.13
2023-03-21T23:36:43.523Z,100792.53
2023-03-21T23:39:11.016Z,100791.63
2023-03-21T23:41:38.387Z,100786.44
2023-03-21T23:44:06.343Z,100781.19
2023-03-21T23:46:33.665Z,100785.59
2023-03-21T23:49:03.618Z,100784.75
2023-03-21T23:51:30.985Z,100789.13
2023-03-21T23:53:59.715Z,100790.91
2023-03-21T23:56:28.316Z,100778.66
2023-03-21T23:59:00.538Z,100776.91
